sensor_id;sensor_type;location;lat;lon;timestamp;temperature;humidity
52285;DHT22;38238;53.304;6.606;2022-08-19T00:00:26;16.50;99.90
52285;DHT22;38238;53.304;6.606;2022-08-19T00:02:53;16.40;99.90
52285;DHT22;38238;53.304;6.606;2022-08-19T00:05:19;16.40;99.90
52285;DHT22;38238;53.304;6.606;2022-08-19T00:07:45;16.30;99.90
52285;DHT22;38238;53.304;6.606;2022-08-19T00:10:13;16.30;99.90
52285;DHT22;38238;53.304;6.606;2022-08-19T00:12:40;16.30;99.90
52285;DHT22;38238;53.304;6.606;2022-08-19T00:15:10;16.30;99.90
52285;DHT22;38238;53.304;6.606;2022-08-19T00:17:38;16.40;99.90
52285;DHT22;38238;53.304;6.606;2022-08-19T00:20:05;16.40;99.90
52285;DHT22;38238;53.304;6.606;2022-08-19T00:22:31;16.40;99.90
52285;DHT22;38238;53.304;6.606;2022-08-19T00:24:56;16.40;99.90
52285;DHT22;38238;53.304;6.606;2022-08-19T00:27:22;16.40;99.90
52285;DHT22;38238;53.304;6.606;2022-08-19T00:29:48;16.40;99.90
52285;DHT22;38238;53.304;6.606;2022-08-19T00:32:13;16.40;99.90
52285;DHT22;38238;53.304;6.606;2022-08-19T00:34:39;16.40;99.90
52285;DHT22;38238;53.304;6.606;2022-08-19T00:37:05;16.40;99.90
52285;DHT22;38238;53.304;6.606;2022-08-19T00:39:31;16.40;99.90
52285;DHT22;38238;53.304;6.606;2022-08-19T00:41:56;16.30;99.90
52285;DHT22;38238;53.304;6.606;2022-08-19T00:44:26;16.30;99.90
52285;DHT22;38238;53.304;6.606;2022-08-19T00:46:53;16.30;99.90
52285;DHT22;38238;53.304;6.606;2022-08-19T00:49:31;16.30;99.90
52285;DHT22;38238;53.304;6.606;2022-08-19T00:52:19;16.20;99.90
52285;DHT22;38238;53.304;6.606;2022-08-19T00:54:46;16.10;99.90
52285;DHT22;38238;53.304;6.606;2022-08-19T00:57:17;16.10;99.90
52285;DHT22;38238;53.304;6.606;2022-08-19T00:59:47;16.10;99.90
52285;DHT22;38238;53.304;6.606;2022-08-19T01:02:16;16.20;99.90
52285;DHT22;38238;53.304;6.606;2022-08-19T01:04:42;16.20;99.90
52285;DHT22;38238;53.304;6.606;2022-08-19T01:07:08;16.20;99.90
52285;DHT22;38238;53.304;6.606;2022-08-19T01:09:34;16.10;99.90
52285;DHT22;38238;53.304;6.606;2022-08-19T01:12:00;16.10;99.90
52285;DHT22;38238;53.304;6.606;2022-08-19T01:14:26;16.10;99.90
52285;DHT22;38238;53.304;6.606;2022-08-19T01:16:53;16.10;99.90
52285;DHT22;38238;53.304;6.606;2022-08-19T01:19:26;16.10;99.90
52285;DHT22;38238;53.304;6.606;2022-08-19T01:22:03;16.10;99.90
52285;DHT22;38238;53.304;6.606;2022-08-19T01:24:30;16.00;99.90
52285;DHT22;38238;53.304;6.606;2022-08-19T01:26:56;16.00;99.90
52285;DHT22;38238;53.304;6.606;2022-08-19T01:29:22;16.00;99.90
52285;DHT22;38238;53.304;6.606;2022-08-19T01:31:48;15.90;99.90
52285;DHT22;38238;53.304;6.606;2022-08-19T01:34:14;15.90;99.90
52285;DHT22;38238;53.304;6.606;2022-08-19T01:36:44;15.90;99.90
52285;DHT22;38238;53.304;6.606;2022-08-19T01:39:19;15.80;99.90
52285;DHT22;38238;53.304;6.606;2022-08-19T01:41:46;15.90;99.90
52285;DHT22;38238;53.304;6.606;2022-08-19T01:44:12;15.90;99.90
52285;DHT22;38238;53.304;6.606;2022-08-19T01:46:38;15.90;99.90
52285;DHT22;38238;53.304;6.606;2022-08-19T01:49:05;15.90;99.90
52285;DHT22;38238;53.304;6.606;2022-08-19T01:51:32;15.90;99.90
52285;DHT22;38238;53.304;6.606;2022-08-19T01:53:58;15.90;99.90
52285;DHT22;38238;53.304;6.606;2022-08-19T01:56:25;15.90;99.90
52285;DHT22;38238;53.304;6.606;2022-08-19T01:58:55;15.90;99.90
52285;DHT22;38238;53.304;6.606;2022-08-19T02:01:23;15.90;99.90
52285;DHT22;38238;53.304;6.606;2022-08-19T02:03:49;15.90;99.90
52285;DHT22;38238;53.304;6.606;2022-08-19T02:06:15;15.90;99.90
52285;DHT22;38238;53.304;6.606;2022-08-19T02:08:42;15.90;99.90
52285;DHT22;38238;53.304;6.606;2022-08-19T02:11:08;15.90;99.90
52285;DHT22;38238;53.304;6.606;2022-08-19T02:13:34;15.80;99.90
52285;DHT22;38238;53.304;6.606;2022-08-19T02:15:59;15.80;99.90
52285;DHT22;38238;53.304;6.606;2022-08-19T02:18:25;15.80;99.90
52285;DHT22;38238;53.304;6.606;2022-08-19T02:20:52;15.70;99.90
52285;DHT22;38238;53.304;6.606;2022-08-19T02:23:17;15.70;99.90
52285;DHT22;38238;53.304;6.606;2022-08-19T02:25:47;15.70;99.90
52285;DHT22;38238;53.304;6.606;2022-08-19T02:28:14;15.70;99.90
52285;DHT22;38238;53.304;6.606;2022-08-19T02:30:41;15.70;99.90
52285;DHT22;38238;53.304;6.606;2022-08-19T02:33:07;15.70;99.90
52285;DHT22;38238;53.304;6.606;2022-08-19T02:35:32;15.70;99.90
52285;DHT22;38238;53.304;6.606;2022-08-19T02:37:58;15.70;99.90
52285;DHT22;38238;53.304;6.606;2022-08-19T02:40:49;15.70;99.90
52285;DHT22;38238;53.304;6.606;2022-08-19T02:43:17;15.70;99.90
52285;DHT22;38238;53.304;6.606;2022-08-19T02:45:43;15.60;99.90
52285;DHT22;38238;53.304;6.606;2022-08-19T02:48:08;15.60;99.90
52285;DHT22;38238;53.304;6.606;2022-08-19T02:50:38;15.60;99.90
52285;DHT22;38238;53.304;6.606;2022-08-19T02:53:04;15.60;99.90
52285;DHT22;38238;53.304;6.606;2022-08-19T02:55:31;15.60;99.90
52285;DHT22;38238;53.304;6.606;2022-08-19T02:57:56;15.60;99.90
52285;DHT22;38238;53.304;6.606;2022-08-19T03:00:22;15.60;99.90
52285;DHT22;38238;53.304;6.606;2022-08-19T03:02:49;15.60;99.90
52285;DHT22;38238;53.304;6.606;2022-08-19T03:05:15;15.60;99.90
52285;DHT22;38238;53.304;6.606;2022-08-19T03:07:41;15.60;99.90
52285;DHT22;38238;53.304;6.606;2022-08-19T03:10:07;15.60;99.90
52285;DHT22;38238;53.304;6.606;2022-08-19T03:12:36;15.60;99.90
52285;DHT22;38238;53.304;6.606;2022-08-19T03:15:04;15.60;99.90
52285;DHT22;38238;53.304;6.606;2022-08-19T03:17:30;15.60;99.90
52285;DHT22;38238;53.304;6.606;2022-08-19T03:19:56;15.60;99.90
52285;DHT22;38238;53.304;6.606;2022-08-19T03:22:22;15.60;99.90
52285;DHT22;38238;53.304;6.606;2022-08-19T03:24:47;15.60;99.90
52285;DHT22;38238;53.304;6.606;2022-08-19T03:27:13;15.60;99.90
52285;DHT22;38238;53.304;6.606;2022-08-19T03:29:39;15.60;99.90
52285;DHT22;38238;53.304;6.606;2022-08-19T03:32:05;15.60;99.90
52285;DHT22;38238;53.304;6.606;2022-08-19T03:34:33;15.60;99.90
52285;DHT22;38238;53.304;6.606;2022-08-19T03:37:07;15.60;99.90
52285;DHT22;38238;53.304;6.606;2022-08-19T03:39:34;15.60;99.90
52285;DHT22;38238;53.304;6.606;2022-08-19T03:42:00;15.50;99.90
52285;DHT22;38238;53.304;6.606;2022-08-19T03:44:28;15.50;99.90
52285;DHT22;38238;53.304;6.606;2022-08-19T03:46:57;15.50;99.90
52285;DHT22;38238;53.304;6.606;2022-08-19T03:49:26;15.50;99.90
52285;DHT22;38238;53.304;6.606;2022-08-19T03:51:56;15.60;99.90
52285;DHT22;38238;53.304;6.606;2022-08-19T03:54:24;15.50;99.90
52285;DHT22;38238;53.304;6.606;2022-08-19T03:56:52;15.60;99.90
52285;DHT22;38238;53.304;6.606;2022-08-19T03:59:32;15.50;99.90
52285;DHT22;38238;53.304;6.606;2022-08-19T04:02:00;15.60;99.90
52285;DHT22;38238;53.304;6.606;2022-08-19T04:04:26;15.60;99.90
52285;DHT22;38238;53.304;6.606;2022-08-19T04:06:52;15.60;99.90
52285;DHT22;38238;53.304;6.606;2022-08-19T04:09:19;15.60;99.90
52285;DHT22;38238;53.304;6.606;2022-08-19T04:11:50;15.60;99.90
52285;DHT22;38238;53.304;6.606;2022-08-19T04:14:21;15.60;99.90
52285;DHT22;38238;53.304;6.606;2022-08-19T04:16:48;15.20;99.90
52285;DHT22;38238;53.304;6.606;2022-08-19T04:19:15;15.50;99.90
52285;DHT22;38238;53.304;6.606;2022-08-19T04:21:44;15.50;99.90
52285;DHT22;38238;53.304;6.606;2022-08-19T04:24:11;15.40;99.90
52285;DHT22;38238;53.304;6.606;2022-08-19T04:26:37;15.40;99.90
52285;DHT22;38238;53.304;6.606;2022-08-19T04:29:23;15.50;99.90
52285;DHT22;38238;53.304;6.606;2022-08-19T04:31:51;15.50;99.90
52285;DHT22;38238;53.304;6.606;2022-08-19T04:34:21;15.40;99.90
52285;DHT22;38238;53.304;6.606;2022-08-19T04:36:48;15.30;99.90
52285;DHT22;38238;53.304;6.606;2022-08-19T04:39:17;15.30;99.90
52285;DHT22;38238;53.304;6.606;2022-08-19T04:41:44;15.20;99.90
52285;DHT22;38238;53.304;6.606;2022-08-19T04:44:28;15.20;99.90
52285;DHT22;38238;53.304;6.606;2022-08-19T04:46:56;15.20;99.90
52285;DHT22;38238;53.304;6.606;2022-08-19T04:49:23;15.20;99.90
52285;DHT22;38238;53.304;6.606;2022-08-19T04:51:50;15.20;99.90
52285;DHT22;38238;53.304;6.606;2022-08-19T04:54:17;15.20;99.90
52285;DHT22;38238;53.304;6.606;2022-08-19T04:56:43;15.10;99.90
52285;DHT22;38238;53.304;6.606;2022-08-19T04:59:09;15.20;99.90
52285;DHT22;38238;53.304;6.606;2022-08-19T05:01:36;15.20;99.90
52285;DHT22;38238;53.304;6.606;2022-08-19T05:04:05;15.20;99.90
52285;DHT22;38238;53.304;6.606;2022-08-19T05:06:32;15.30;99.90
52285;DHT22;38238;53.304;6.606;2022-08-19T05:09:03;15.30;99.90
52285;DHT22;38238;53.304;6.606;2022-08-19T05:11:32;15.40;99.90
52285;DHT22;38238;53.304;6.606;2022-08-19T05:13:58;15.40;99.90
52285;DHT22;38238;53.304;6.606;2022-08-19T05:16:25;15.50;99.90
52285;DHT22;38238;53.304;6.606;2022-08-19T05:18:52;15.50;99.90
52285;DHT22;38238;53.304;6.606;2022-08-19T05:21:36;15.50;99.90
52285;DHT22;38238;53.304;6.606;2022-08-19T05:24:22;15.60;99.90
52285;DHT22;38238;53.304;6.606;2022-08-19T05:26:51;15.60;99.90
52285;DHT22;38238;53.304;6.606;2022-08-19T05:29:21;15.70;99.90
52285;DHT22;38238;53.304;6.606;2022-08-19T05:31:47;15.70;99.90
52285;DHT22;38238;53.304;6.606;2022-08-19T05:34:15;15.80;99.90
52285;DHT22;38238;53.304;6.606;2022-08-19T05:36:44;15.80;99.90
52285;DHT22;38238;53.304;6.606;2022-08-19T05:39:16;15.80;99.90
52285;DHT22;38238;53.304;6.606;2022-08-19T05:41:47;15.80;99.90
52285;DHT22;38238;53.304;6.606;2022-08-19T05:44:14;15.90;99.90
52285;DHT22;38238;53.304;6.606;2022-08-19T05:46:43;15.90;99.90
52285;DHT22;38238;53.304;6.606;2022-08-19T05:49:12;15.90;99.90
52285;DHT22;38238;53.304;6.606;2022-08-19T05:51:38;16.00;99.90
52285;DHT22;38238;53.304;6.606;2022-08-19T05:54:05;16.90;99.90
52285;DHT22;38238;53.304;6.606;2022-08-19T05:56:31;16.10;99.90
52285;DHT22;38238;53.304;6.606;2022-08-19T05:58:58;16.10;99.90
52285;DHT22;38238;53.304;6.606;2022-08-19T06:01:25;16.20;99.90
52285;DHT22;38238;53.304;6.606;2022-08-19T06:03:51;16.20;99.90
52285;DHT22;38238;53.304;6.606;2022-08-19T06:06:18;16.30;99.90
52285;DHT22;38238;53.304;6.606;2022-08-19T06:08:44;16.30;99.90
52285;DHT22;38238;53.304;6.606;2022-08-19T06:11:18;16.30;99.90
52285;DHT22;38238;53.304;6.606;2022-08-19T06:13:46;16.40;99.90
52285;DHT22;38238;53.304;6.606;2022-08-19T06:16:13;16.50;99.90
52285;DHT22;38238;53.304;6.606;2022-08-19T06:18:46;16.60;99.90
52285;DHT22;38238;53.304;6.606;2022-08-19T06:21:12;16.70;99.90
52285;DHT22;38238;53.304;6.606;2022-08-19T06:23:37;16.70;99.90
52285;DHT22;38238;53.304;6.606;2022-08-19T06:26:04;16.80;99.90
52285;DHT22;38238;53.304;6.606;2022-08-19T06:28:30;16.90;99.90
52285;DHT22;38238;53.304;6.606;2022-08-19T06:30:55;17.00;99.90
52285;DHT22;38238;53.304;6.606;2022-08-19T06:33:21;17.10;99.90
52285;DHT22;38238;53.304;6.606;2022-08-19T06:35:47;17.20;99.90
52285;DHT22;38238;53.304;6.606;2022-08-19T06:38:12;17.30;99.90
52285;DHT22;38238;53.304;6.606;2022-08-19T06:40:38;17.40;99.90
52285;DHT22;38238;53.304;6.606;2022-08-19T06:43:04;17.40;99.90
52285;DHT22;38238;53.304;6.606;2022-08-19T06:45:29;17.50;99.90
52285;DHT22;38238;53.304;6.606;2022-08-19T06:47:55;17.60;99.90
52285;DHT22;38238;53.304;6.606;2022-08-19T06:50:25;17.70;99.90
52285;DHT22;38238;53.304;6.606;2022-08-19T06:52:51;17.80;99.90
52285;DHT22;38238;53.304;6.606;2022-08-19T06:55:17;17.80;99.90
52285;DHT22;38238;53.304;6.606;2022-08-19T06:57:42;17.90;99.90
52285;DHT22;38238;53.304;6.606;2022-08-19T07:00:11;18.00;99.90
52285;DHT22;38238;53.304;6.606;2022-08-19T07:02:43;18.10;99.90
52285;DHT22;38238;53.304;6.606;2022-08-19T07:05:09;18.20;99.90
52285;DHT22;38238;53.304;6.606;2022-08-19T07:07:35;18.30;99.90
52285;DHT22;38238;53.304;6.606;2022-08-19T07:10:01;18.40;99.90
52285;DHT22;38238;53.304;6.606;2022-08-19T07:12:32;18.50;99.90
52285;DHT22;38238;53.304;6.606;2022-08-19T07:15:00;18.70;99.90
52285;DHT22;38238;53.304;6.606;2022-08-19T07:17:27;18.80;99.90
52285;DHT22;38238;53.304;6.606;2022-08-19T07:19:53;18.90;99.90
52285;DHT22;38238;53.304;6.606;2022-08-19T07:22:21;18.90;99.90
52285;DHT22;38238;53.304;6.606;2022-08-19T07:24:48;19.00;99.90
52285;DHT22;38238;53.304;6.606;2022-08-19T07:27:14;19.10;99.90
52285;DHT22;38238;53.304;6.606;2022-08-19T07:29:40;19.10;99.90
52285;DHT22;38238;53.304;6.606;2022-08-19T07:32:06;19.10;99.90
52285;DHT22;38238;53.304;6.606;2022-08-19T07:34:32;19.20;99.90
52285;DHT22;38238;53.304;6.606;2022-08-19T07:37:05;19.30;99.90
52285;DHT22;38238;53.304;6.606;2022-08-19T07:39:33;19.30;99.90
52285;DHT22;38238;53.304;6.606;2022-08-19T07:42:02;19.40;99.90
52285;DHT22;38238;53.304;6.606;2022-08-19T07:44:29;19.50;99.90
52285;DHT22;38238;53.304;6.606;2022-08-19T07:46:56;19.50;99.90
52285;DHT22;38238;53.304;6.606;2022-08-19T07:49:23;19.60;99.90
52285;DHT22;38238;53.304;6.606;2022-08-19T07:51:58;19.60;99.90
52285;DHT22;38238;53.304;6.606;2022-08-19T07:54:28;19.70;99.90
52285;DHT22;38238;53.304;6.606;2022-08-19T07:56:54;19.80;99.90
52285;DHT22;38238;53.304;6.606;2022-08-19T07:59:20;19.90;99.90
52285;DHT22;38238;53.304;6.606;2022-08-19T08:01:47;19.90;99.90
52285;DHT22;38238;53.304;6.606;2022-08-19T08:04:13;20.00;99.90
52285;DHT22;38238;53.304;6.606;2022-08-19T08:06:58;20.10;99.90
52285;DHT22;38238;53.304;6.606;2022-08-19T08:09:43;20.20;99.90
52285;DHT22;38238;53.304;6.606;2022-08-19T08:12:16;20.30;99.90
52285;DHT22;38238;53.304;6.606;2022-08-19T08:14:48;20.40;99.90
52285;DHT22;38238;53.304;6.606;2022-08-19T08:17:17;20.40;99.90
52285;DHT22;38238;53.304;6.606;2022-08-19T08:19:44;20.50;99.90
52285;DHT22;38238;53.304;6.606;2022-08-19T08:22:11;20.60;99.90
52285;DHT22;38238;53.304;6.606;2022-08-19T08:25:12;20.70;99.90
52285;DHT22;38238;53.304;6.606;2022-08-19T08:27:39;20.80;99.90
52285;DHT22;38238;53.304;6.606;2022-08-19T08:30:11;20.90;99.90
52285;DHT22;38238;53.304;6.606;2022-08-19T08:32:38;20.90;99.90
52285;DHT22;38238;53.304;6.606;2022-08-19T08:35:11;21.00;99.90
52285;DHT22;38238;53.304;6.606;2022-08-19T08:37:37;21.10;99.90
52285;DHT22;38238;53.304;6.606;2022-08-19T08:45:28;21.30;99.90
52285;DHT22;38238;53.304;6.606;2022-08-19T08:47:57;21.40;99.90
52285;DHT22;38238;53.304;6.606;2022-08-19T08:50:33;21.50;99.90
52285;DHT22;38238;53.304;6.606;2022-08-19T08:53:02;21.70;99.90
52285;DHT22;38238;53.304;6.606;2022-08-19T08:55:30;21.70;99.90
52285;DHT22;38238;53.304;6.606;2022-08-19T08:58:10;21.90;99.90
52285;DHT22;38238;53.304;6.606;2022-08-19T09:00:44;22.00;99.90
52285;DHT22;38238;53.304;6.606;2022-08-19T09:03:18;22.10;99.90
52285;DHT22;38238;53.304;6.606;2022-08-19T09:11:08;22.50;99.90
52285;DHT22;38238;53.304;6.606;2022-08-19T09:13:56;23.30;99.90
52285;DHT22;38238;53.304;6.606;2022-08-19T09:16:27;24.30;99.90
52285;DHT22;38238;53.304;6.606;2022-08-19T09:18:56;25.20;99.90
52285;DHT22;38238;53.304;6.606;2022-08-19T09:21:23;25.70;99.90
52285;DHT22;38238;53.304;6.606;2022-08-19T09:23:50;26.20;99.90
52285;DHT22;38238;53.304;6.606;2022-08-19T09:26:19;26.60;99.90
52285;DHT22;38238;53.304;6.606;2022-08-19T09:28:47;26.90;99.90
52285;DHT22;38238;53.304;6.606;2022-08-19T09:31:16;27.30;99.90
52285;DHT22;38238;53.304;6.606;2022-08-19T09:33:42;27.50;99.90
52285;DHT22;38238;53.304;6.606;2022-08-19T09:36:13;27.80;99.90
52285;DHT22;38238;53.304;6.606;2022-08-19T09:38:40;28.00;99.90
52285;DHT22;38238;53.304;6.606;2022-08-19T09:41:12;28.10;99.90
52285;DHT22;38238;53.304;6.606;2022-08-19T09:43:40;28.30;99.90
52285;DHT22;38238;53.304;6.606;2022-08-19T09:46:07;28.60;99.90
52285;DHT22;38238;53.304;6.606;2022-08-19T09:48:35;28.70;99.80
52285;DHT22;38238;53.304;6.606;2022-08-19T09:51:06;28.60;99.70
52285;DHT22;38238;53.304;6.606;2022-08-19T09:53:34;28.40;99.20
52285;DHT22;38238;53.304;6.606;2022-08-19T09:56:00;28.40;99.10
52285;DHT22;38238;53.304;6.606;2022-08-19T09:58:26;28.30;98.60
52285;DHT22;38238;53.304;6.606;2022-08-19T10:00:58;28.30;98.50
52285;DHT22;38238;53.304;6.606;2022-08-19T10:03:25;28.40;99.00
52285;DHT22;38238;53.304;6.606;2022-08-19T10:05:52;28.50;99.20
52285;DHT22;38238;53.304;6.606;2022-08-19T10:08:28;28.60;98.80
52285;DHT22;38238;53.304;6.606;2022-08-19T10:10:54;28.60;98.60
52285;DHT22;38238;53.304;6.606;2022-08-19T10:13:23;28.60;97.90
52285;DHT22;38238;53.304;6.606;2022-08-19T10:15:51;28.60;97.80
52285;DHT22;38238;53.304;6.606;2022-08-19T10:18:19;28.80;97.80
52285;DHT22;38238;53.304;6.606;2022-08-19T10:20:49;28.70;98.00
52285;DHT22;38238;53.304;6.606;2022-08-19T10:23:16;28.80;97.90
52285;DHT22;38238;53.304;6.606;2022-08-19T10:25:43;28.90;97.70
52285;DHT22;38238;53.304;6.606;2022-08-19T10:28:09;28.90;98.10
52285;DHT22;38238;53.304;6.606;2022-08-19T10:30:40;28.80;97.40
52285;DHT22;38238;53.304;6.606;2022-08-19T10:33:06;28.70;97.30
52285;DHT22;38238;53.304;6.606;2022-08-19T10:35:32;28.70;97.10
52285;DHT22;38238;53.304;6.606;2022-08-19T10:37:58;28.80;97.10
52285;DHT22;38238;53.304;6.606;2022-08-19T10:40:26;28.90;96.80
52285;DHT22;38238;53.304;6.606;2022-08-19T10:42:53;29.00;96.80
52285;DHT22;38238;53.304;6.606;2022-08-19T10:45:20;29.00;96.50
52285;DHT22;38238;53.304;6.606;2022-08-19T10:47:52;29.00;96.30
52285;DHT22;38238;53.304;6.606;2022-08-19T10:50:18;29.00;96.20
52285;DHT22;38238;53.304;6.606;2022-08-19T10:53:07;29.00;96.00
52285;DHT22;38238;53.304;6.606;2022-08-19T10:55:36;29.00;96.00
52285;DHT22;38238;53.304;6.606;2022-08-19T10:58:21;29.20;96.30
52285;DHT22;38238;53.304;6.606;2022-08-19T11:00:58;29.30;96.20
52285;DHT22;38238;53.304;6.606;2022-08-19T11:03:25;29.50;95.90
52285;DHT22;38238;53.304;6.606;2022-08-19T11:06:05;29.60;96.10
52285;DHT22;38238;53.304;6.606;2022-08-19T11:08:32;29.70;95.60
52285;DHT22;38238;53.304;6.606;2022-08-19T11:11:00;29.80;95.80
52285;DHT22;38238;53.304;6.606;2022-08-19T11:13:28;29.80;95.20
52285;DHT22;38238;53.304;6.606;2022-08-19T11:16:05;29.60;95.40
52285;DHT22;38238;53.304;6.606;2022-08-19T11:18:38;29.40;94.90
52285;DHT22;38238;53.304;6.606;2022-08-19T11:23:42;29.10;94.70
52285;DHT22;38238;53.304;6.606;2022-08-19T11:26:08;29.20;94.70
52285;DHT22;38238;53.304;6.606;2022-08-19T11:28:35;29.30;94.60
52285;DHT22;38238;53.304;6.606;2022-08-19T11:31:00;29.50;94.80
52285;DHT22;38238;53.304;6.606;2022-08-19T11:33:29;29.60;94.70
52285;DHT22;38238;53.304;6.606;2022-08-19T11:35:57;29.60;94.40
52285;DHT22;38238;53.304;6.606;2022-08-19T11:38:23;29.30;94.30
52285;DHT22;38238;53.304;6.606;2022-08-19T11:41:00;29.20;94.10
52285;DHT22;38238;53.304;6.606;2022-08-19T11:43:27;29.30;94.00
52285;DHT22;38238;53.304;6.606;2022-08-19T11:45:54;29.50;94.20
52285;DHT22;38238;53.304;6.606;2022-08-19T11:48:21;29.50;93.80
52285;DHT22;38238;53.304;6.606;2022-08-19T11:50:51;29.40;93.60
52285;DHT22;38238;53.304;6.606;2022-08-19T11:53:19;29.20;93.30
52285;DHT22;38238;53.304;6.606;2022-08-19T11:55:50;28.90;93.40
52285;DHT22;38238;53.304;6.606;2022-08-19T11:58:16;28.70;93.60
52285;DHT22;38238;53.304;6.606;2022-08-19T12:00:43;28.50;93.70
52285;DHT22;38238;53.304;6.606;2022-08-19T12:03:11;28.40;93.90
52285;DHT22;38238;53.304;6.606;2022-08-19T12:05:37;28.30;93.60
52285;DHT22;38238;53.304;6.606;2022-08-19T12:08:03;28.10;93.70
52285;DHT22;38238;53.304;6.606;2022-08-19T12:10:29;28.00;94.10
52285;DHT22;38238;53.304;6.606;2022-08-19T12:12:55;28.00;94.60
52285;DHT22;38238;53.304;6.606;2022-08-19T12:15:20;28.10;94.50
52285;DHT22;38238;53.304;6.606;2022-08-19T12:17:46;28.10;94.00
52285;DHT22;38238;53.304;6.606;2022-08-19T12:20:13;28.10;93.90
52285;DHT22;38238;53.304;6.606;2022-08-19T12:22:41;28.00;93.90
52285;DHT22;38238;53.304;6.606;2022-08-19T12:25:09;28.00;93.90
52285;DHT22;38238;53.304;6.606;2022-08-19T12:27:35;27.90;93.60
52285;DHT22;38238;53.304;6.606;2022-08-19T12:30:02;27.90;93.80
52285;DHT22;38238;53.304;6.606;2022-08-19T12:32:29;27.90;93.90
52285;DHT22;38238;53.304;6.606;2022-08-19T12:34:55;27.90;93.60
52285;DHT22;38238;53.304;6.606;2022-08-19T12:37:20;27.90;93.60
52285;DHT22;38238;53.304;6.606;2022-08-19T12:39:46;27.90;93.30
52285;DHT22;38238;53.304;6.606;2022-08-19T12:42:13;27.90;93.60
52285;DHT22;38238;53.304;6.606;2022-08-19T12:44:40;27.90;93.80
52285;DHT22;38238;53.304;6.606;2022-08-19T12:47:09;27.80;93.80
52285;DHT22;38238;53.304;6.606;2022-08-19T12:49:35;27.80;94.00
52285;DHT22;38238;53.304;6.606;2022-08-19T12:52:04;27.70;93.90
52285;DHT22;38238;53.304;6.606;2022-08-19T12:54:30;27.60;94.10
52285;DHT22;38238;53.304;6.606;2022-08-19T12:56:57;27.50;94.30
52285;DHT22;38238;53.304;6.606;2022-08-19T12:59:23;27.50;94.40
52285;DHT22;38238;53.304;6.606;2022-08-19T13:01:49;27.40;94.50
52285;DHT22;38238;53.304;6.606;2022-08-19T13:04:15;27.30;94.50
52285;DHT22;38238;53.304;6.606;2022-08-19T13:06:42;27.30;94.40
52285;DHT22;38238;53.304;6.606;2022-08-19T13:09:08;27.20;94.40
52285;DHT22;38238;53.304;6.606;2022-08-19T13:11:35;27.10;94.30
52285;DHT22;38238;53.304;6.606;2022-08-19T13:14:02;27.10;94.50
52285;DHT22;38238;53.304;6.606;2022-08-19T13:16:28;27.00;95.20
52285;DHT22;38238;53.304;6.606;2022-08-19T13:18:55;26.60;95.80
52285;DHT22;38238;53.304;6.606;2022-08-19T13:21:24;26.20;96.30
52285;DHT22;38238;53.304;6.606;2022-08-19T13:23:50;25.70;97.00
52285;DHT22;38238;53.304;6.606;2022-08-19T13:26:17;25.40;97.90
52285;DHT22;38238;53.304;6.606;2022-08-19T13:28:44;25.10;98.50
52285;DHT22;38238;53.304;6.606;2022-08-19T13:31:31;24.80;99.20
52285;DHT22;38238;53.304;6.606;2022-08-19T13:34:17;24.40;99.90
52285;DHT22;38238;53.304;6.606;2022-08-19T13:36:43;24.00;99.90
52285;DHT22;38238;53.304;6.606;2022-08-19T13:39:10;23.60;99.90
52285;DHT22;38238;53.304;6.606;2022-08-19T13:41:37;23.40;99.90
52285;DHT22;38238;53.304;6.606;2022-08-19T13:44:04;23.10;99.90
52285;DHT22;38238;53.304;6.606;2022-08-19T13:46:30;22.90;99.90
52285;DHT22;38238;53.304;6.606;2022-08-19T13:48:56;22.70;99.90
52285;DHT22;38238;53.304;6.606;2022-08-19T13:51:22;22.70;99.90
52285;DHT22;38238;53.304;6.606;2022-08-19T13:53:48;22.70;99.90
52285;DHT22;38238;53.304;6.606;2022-08-19T13:56:17;22.60;99.90
52285;DHT22;38238;53.304;6.606;2022-08-19T13:58:45;22.70;99.90
52285;DHT22;38238;53.304;6.606;2022-08-19T14:01:11;22.70;99.90
52285;DHT22;38238;53.304;6.606;2022-08-19T14:03:37;22.90;99.90
52285;DHT22;38238;53.304;6.606;2022-08-19T14:06:03;23.00;99.90
52285;DHT22;38238;53.304;6.606;2022-08-19T14:08:29;23.10;99.90
52285;DHT22;38238;53.304;6.606;2022-08-19T14:10:58;23.30;99.90
52285;DHT22;38238;53.304;6.606;2022-08-19T14:13:24;23.40;99.90
52285;DHT22;38238;53.304;6.606;2022-08-19T14:15:50;23.60;99.90
52285;DHT22;38238;53.304;6.606;2022-08-19T14:18:17;23.80;99.90
52285;DHT22;38238;53.304;6.606;2022-08-19T14:20:43;23.90;99.90
52285;DHT22;38238;53.304;6.606;2022-08-19T14:23:09;24.20;99.90
52285;DHT22;38238;53.304;6.606;2022-08-19T14:25:36;24.60;99.90
52285;DHT22;38238;53.304;6.606;2022-08-19T14:28:01;25.00;99.90
52285;DHT22;38238;53.304;6.606;2022-08-19T14:30:33;25.10;99.90
52285;DHT22;38238;53.304;6.606;2022-08-19T14:33:00;25.00;99.90
52285;DHT22;38238;53.304;6.606;2022-08-19T14:35:31;24.90;99.90
52285;DHT22;38238;53.304;6.606;2022-08-19T14:38:01;24.80;99.90
52285;DHT22;38238;53.304;6.606;2022-08-19T14:40:28;24.60;99.90
52285;DHT22;38238;53.304;6.606;2022-08-19T14:42:56;24.50;99.90
52285;DHT22;38238;53.304;6.606;2022-08-19T14:45:25;24.30;99.90
52285;DHT22;38238;53.304;6.606;2022-08-19T14:47:51;24.70;99.90
52285;DHT22;38238;53.304;6.606;2022-08-19T14:50:18;24.70;99.90
52285;DHT22;38238;53.304;6.606;2022-08-19T14:52:48;24.80;99.90
52285;DHT22;38238;53.304;6.606;2022-08-19T14:55:15;25.00;99.90
52285;DHT22;38238;53.304;6.606;2022-08-19T14:57:42;24.90;99.90
52285;DHT22;38238;53.304;6.606;2022-08-19T15:00:09;24.90;99.90
52285;DHT22;38238;53.304;6.606;2022-08-19T15:02:41;24.70;99.90
52285;DHT22;38238;53.304;6.606;2022-08-19T15:05:09;24.80;99.90
52285;DHT22;38238;53.304;6.606;2022-08-19T15:07:36;24.90;99.90
52285;DHT22;38238;53.304;6.606;2022-08-19T15:10:03;25.10;99.90
52285;DHT22;38238;53.304;6.606;2022-08-19T15:12:29;25.00;99.90
52285;DHT22;38238;53.304;6.606;2022-08-19T15:14:55;24.80;99.90
52285;DHT22;38238;53.304;6.606;2022-08-19T15:17:21;24.60;99.90
52285;DHT22;38238;53.304;6.606;2022-08-19T15:19:47;24.40;99.90
52285;DHT22;38238;53.304;6.606;2022-08-19T15:22:12;24.30;99.90
52285;DHT22;38238;53.304;6.606;2022-08-19T15:24:39;24.20;99.90
52285;DHT22;38238;53.304;6.606;2022-08-19T15:27:04;24.10;99.90
52285;DHT22;38238;53.304;6.606;2022-08-19T15:29:31;24.00;99.90
52285;DHT22;38238;53.304;6.606;2022-08-19T15:31:57;23.80;99.90
52285;DHT22;38238;53.304;6.606;2022-08-19T15:34:24;23.60;99.90
52285;DHT22;38238;53.304;6.606;2022-08-19T15:36:51;23.50;99.90
52285;DHT22;38238;53.304;6.606;2022-08-19T15:39:17;23.50;99.90
52285;DHT22;38238;53.304;6.606;2022-08-19T15:41:44;23.40;99.90
52285;DHT22;38238;53.304;6.606;2022-08-19T15:44:13;23.40;99.90
52285;DHT22;38238;53.304;6.606;2022-08-19T15:46:42;23.50;99.90
52285;DHT22;38238;53.304;6.606;2022-08-19T15:49:11;23.70;99.90